Time;durP1;ratioP1;P1;durP2;ratioP2;P2;SDS_P1;SDS_P2;PMS_P1;PMS_P2;Temp;Humidity;BMP_temperature;BMP_pressure;BME280_temperature;BME280_humidity;BME280_pressure;Samples;Min_cycle;Max_cycle;Signal;HPM_P1;HPM_P2
2022/07/18 00:07:11;;;;;;;4.90;4.00;;;;;;;9.82;65.69;100350.36;432214;1270;141736;-59
2022/07/18 00:17:17;;;;;;;3.90;3.50;;;;;;;9.75;66.29;100349.13;432285;1270;141483;-60
2022/07/18 00:27:23;;;;;;;3.80;3.40;;;;;;;9.67;66.27;100348.10;431698;1271;142555;-59
2022/07/18 00:37:29;;;;;;;4.50;3.70;;;;;;;9.57;66.71;100351.39;431272;1270;142066;-60
2022/07/18 00:47:35;;;;;;;5.50;3.70;;;;;;;9.49;67.03;100360.84;432093;1270;196160;-60
2022/07/18 00:57:42;;;;;;;4.50;3.20;;;;;;;9.41;67.41;100365.05;431882;1270;140935;-59
2022/07/18 01:07:49;;;;;;;3.60;2.90;;;;;;;9.34;67.51;100365.22;431028;1271;141927;-60
2022/07/18 01:17:55;;;;;;;3.60;3.30;;;;;;;9.33;67.68;100358.41;431901;1271;141847;-59
2022/07/18 01:28:01;;;;;;;6.80;3.50;;;;;;;9.32;67.78;100353.41;432120;1270;141054;-60
2022/07/18 01:38:07;;;;;;;6.10;4.00;;;;;;;9.29;68.25;100353.39;430990;1270;143710;-58
2022/07/18 01:48:12;;;;;;;7.60;4.60;;;;;;;9.23;68.26;100358.87;432096;1270;145337;-60
2022/07/18 01:58:18;;;;;;;5.40;3.50;;;;;;;9.17;68.50;100360.57;431333;1270;141966;-58
2022/07/18 02:08:24;;;;;;;4.90;4.00;;;;;;;9.10;68.87;100366.48;432481;1270;153063;-60
2022/07/18 02:18:32;;;;;;;3.50;2.80;;;;;;;9.02;68.98;100376.42;432206;1270;142170;-61
2022/07/18 02:28:45;;;;;;;5.00;3.30;;;;;;;9.02;69.29;100385.02;431090;1270;142861;-59
2022/07/18 02:38:51;;;;;;;4.40;2.80;;;;;;;9.03;69.50;100384.63;431539;1268;141443;-59
2022/07/18 02:48:57;;;;;;;6.40;3.50;;;;;;;8.99;69.50;100386.70;431659;1270;141107;-57
2022/07/18 02:59:03;;;;;;;4.60;3.80;;;;;;;8.99;69.56;100379.39;430427;1270;141350;-58
2022/07/18 03:09:09;;;;;;;6.40;4.10;;;;;;;9.11;69.64;100374.44;431390;1271;141656;-59
2022/07/18 03:19:15;;;;;;;6.50;3.80;;;;;;;9.77;69.60;100372.80;431989;1270;141227;-59
2022/07/18 03:29:21;;;;;;;5.90;4.70;;;;;;;10.65;67.81;100372.19;432088;1270;141115;-60
2022/07/18 03:39:27;;;;;;;7.30;6.50;;;;;;;10.90;67.27;100371.04;432319;1270;146835;-59
2022/07/18 03:49:32;;;;;;;5.50;5.00;;;;;;;11.29;66.59;100374.40;430830;1270;143824;-60
2022/07/18 03:59:39;;;;;;;6.60;4.50;;;;;;;11.87;66.00;100375.79;431430;1270;147317;-59
2022/07/18 04:09:44;;;;;;;7.40;5.50;;;;;;;12.58;65.27;100380.31;432303;1270;142042;-59
2022/07/18 04:19:50;;;;;;;7.90;6.10;;;;;;;14.28;64.20;100376.14;431073;1270;147921;-59
2022/07/18 04:29:56;;;;;;;14.20;4.80;;;;;;;20.58;57.77;100368.36;431189;1271;144871;-58
2022/07/18 04:40:03;;;;;;;8.20;4.40;;;;;;;26.17;49.58;100360.50;431965;1270;148251;-60
2022/07/18 04:50:10;;;;;;;4.90;2.80;;;;;;;29.56;42.24;100366.39;431615;1270;142791;-59
2022/07/18 05:00:18;;;;;;;4.20;2.40;;;;;;;32.97;36.79;100363.27;431338;1271;141418;-60
2022/07/18 05:10:25;;;;;;;2.90;2.60;;;;;;;36.42;31.65;100357.11;431126;1270;141303;-60
2022/07/18 05:20:31;;;;;;;5.40;3.10;;;;;;;37.71;28.33;100362.48;432057;1270;141485;-59
2022/07/18 05:30:38;;;;;;;6.00;2.60;;;;;;;40.06;25.55;100358.80;431685;1271;148850;-59
2022/07/18 05:40:44;;;;;;;6.30;3.10;;;;;;;40.44;23.42;100357.17;432651;1270;147584;-60
2022/07/18 05:50:50;;;;;;;7.80;2.80;;;;;;;37.71;23.51;100358.36;436512;1270;140903;-59
2022/07/18 06:00:56;;;;;;;6.00;3.30;;;;;;;37.28;23.34;100352.62;431573;1270;141475;-59
2022/07/18 06:11:03;;;;;;;3.20;2.20;;;;;;;35.89;24.04;100348.58;430831;1270;141575;-60
2022/07/18 06:21:10;;;;;;;5.90;2.20;;;;;;;37.89;23.05;100345.59;432066;1270;141287;-61
2022/07/18 06:31:16;;;;;;;7.50;2.70;;;;;;;42.50;20.65;100346.84;432440;1270;140761;-61
2022/07/18 06:41:22;;;;;;;3.20;2.10;;;;;;;45.02;18.54;100344.20;432927;1270;141729;-60
2022/07/18 06:51:29;;;;;;;4.00;2.20;;;;;;;46.36;17.10;100344.38;432043;1270;141010;-61
2022/07/18 07:01:35;;;;;;;3.70;2.50;;;;;;;48.73;15.45;100340.29;430878;1268;145680;-61
2022/07/18 07:11:41;;;;;;;3.00;2.40;;;;;;;48.72;14.17;100336.04;432243;1271;143052;-61
2022/07/18 07:21:47;;;;;;;3.40;3.00;;;;;;;46.65;13.95;100330.70;432064;1271;140807;-59
2022/07/18 07:31:53;;;;;;;2.40;2.20;;;;;;;46.34;13.45;100330.70;430712;1271;141633;-59
2022/07/18 07:41:59;;;;;;;3.80;2.30;;;;;;;44.02;14.02;100328.80;431711;1271;141105;-59
2022/07/18 07:52:11;;;;;;;4.30;1.80;;;;;;;45.33;13.95;100330.04;431662;1271;140581;-61
2022/07/18 08:02:18;;;;;;;2.00;1.30;;;;;;;42.78;14.14;100328.94;431074;1273;141420;-59
2022/07/18 08:12:23;;;;;;;1.90;1.10;;;;;;;37.16;16.86;100328.70;431316;1271;145534;-60
2022/07/18 08:22:29;;;;;;;1.10;0.90;;;;;;;32.62;20.00;100330.81;430505;1271;141366;-59
2022/07/18 08:32:35;;;;;;;2.30;1.20;;;;;;;30.24;22.18;100332.52;431748;1270;147732;-60
2022/07/18 08:42:40;;;;;;;;;;;;;;;29.29;23.77;100340.20;431060;1271;140732;-59
2022/07/18 08:53:06;;;;;;;1.30;0.80;;;;;;;28.48;24.50;100337.67;431407;1271;127796;-60
2022/07/18 09:03:13;;;;;;;1.50;1.30;;;;;;;27.79;25.92;100332.63;431941;1271;141579;-60
2022/07/18 09:13:19;;;;;;;1.30;0.90;;;;;;;28.55;25.52;100331.33;430803;1270;142949;-60
2022/07/18 09:23:30;;;;;;;1.20;0.80;;;;;;;28.03;25.80;100333.17;431817;1270;208099;-60
2022/07/18 09:33:36;;;;;;;2.50;0.70;;;;;;;28.38;25.94;100328.48;432355;1270;141332;-60
2022/07/18 09:43:43;;;;;;;7.00;1.50;;;;;;;28.37;26.30;100323.99;431574;1270;146980;-59
2022/07/18 09:53:48;;;;;;;;;;;;;;;28.00;26.75;100319.91;432224;1270;140602;-57
2022/07/18 10:03:54;;;;;;;3.00;1.10;;;;;;;27.32;27.30;100319.78;431934;1271;132883;-61
2022/07/18 10:14:00;;;;;;;1.60;1.00;;;;;;;27.12;28.04;100317.64;431437;1270;141054;-60
2022/07/18 10:24:07;;;;;;;2.30;1.50;;;;;;;27.16;28.33;100319.84;431325;1270;142440;-61
2022/07/18 10:34:14;;;;;;;1.20;1.10;;;;;;;27.61;28.05;100316.73;431565;1271;141861;-60
2022/07/18 10:44:31;;;;;;;;;;;;;;;27.95;27.68;100315.33;431715;1271;140713;-60
2022/07/18 10:54:37;;;;;;;2.70;1.00;;;;;;;27.75;28.15;100309.17;432450;1270;128176;-61
2022/07/18 11:04:43;;;;;;;2.00;1.10;;;;;;;27.54;28.29;100306.05;431110;1271;183281;-60
2022/07/18 11:15:13;;;;;;;1.30;1.00;;;;;;;27.44;28.60;100302.03;431561;1270;140386;-60
2022/07/18 11:25:20;;;;;;;1.60;1.40;;;;;;;27.56;28.49;100292.36;430569;1270;346602;-60
2022/07/18 11:35:46;;;;;;;6.90;1.80;;;;;;;27.17;29.26;100286.16;431593;1270;140803;-60
2022/07/18 11:46:01;;;;;;;3.40;1.10;;;;;;;27.93;29.16;100275.79;431607;1271;140554;-60
2022/07/18 11:56:08;;;;;;;3.70;0.90;;;;;;;28.41;28.54;100261.41;430726;1271;141905;-60
2022/07/18 12:06:16;;;;;;;1.20;0.90;;;;;;;27.45;29.04;100249.29;431812;1270;142021;-61
2022/07/18 12:16:31;;;;;;;1.20;0.90;;;;;;;27.32;28.89;100246.47;431655;1270;141727;-60
2022/07/18 12:26:37;;;;;;;1.30;1.00;;;;;;;27.42;29.08;100239.35;431711;1270;140987;-60
2022/07/18 12:36:58;;;;;;;2.10;0.80;;;;;;;27.49;29.04;100229.23;432585;1270;141997;-58
2022/07/18 12:47:05;;;;;;;2.80;1.10;;;;;;;27.30;29.02;100224.55;431055;1271;146415;-60
2022/07/18 12:57:11;;;;;;;1.10;0.90;;;;;;;26.53;29.31;100221.59;431571;1269;141862;-58
2022/07/18 13:07:17;;;;;;;2.70;1.70;;;;;;;25.93;29.80;100218.48;431721;1270;141825;-60
2022/07/18 13:17:23;;;;;;;1.50;1.30;;;;;;;25.58;30.33;100202.71;431089;1271;141421;-59
2022/07/18 13:27:35;;;;;;;1.70;0.90;;;;;;;25.56;30.77;100196.51;431427;1271;140780;-60
2022/07/18 13:37:41;;;;;;;4.10;1.40;;;;;;;25.25;30.96;100190.03;431455;1270;144705;-65
2022/07/18 13:47:47;;;;;;;1.60;1.10;;;;;;;24.95;30.73;100189.54;431304;1271;140616;-59
2022/07/18 13:57:53;;;;;;;9.00;1.50;;;;;;;25.11;31.03;100184.63;432239;1269;141979;-58
2022/07/18 14:07:59;;;;;;;2.80;1.10;;;;;;;25.12;30.86;100179.73;431166;1270;196669;-59
2022/07/18 14:18:06;;;;;;;2.30;1.40;;;;;;;25.20;30.66;100169.33;431330;1270;140872;-59
2022/07/18 14:28:12;;;;;;;1.90;1.00;;;;;;;25.20;30.69;100173.55;431769;1270;141564;-57
2022/07/18 14:38:18;;;;;;;1.60;1.10;;;;;;;25.25;30.75;100161.55;435988;1270;142237;-57
2022/07/18 14:48:25;;;;;;;1.30;1.20;;;;;;;25.57;30.63;100156.25;431540;1270;140903;-59
2022/07/18 14:58:31;;;;;;;5.00;1.10;;;;;;;25.67;30.40;100151.03;430994;1270;141497;-57
2022/07/18 15:08:38;;;;;;;1.50;1.00;;;;;;;25.42;30.61;100145.20;434453;1270;141831;-56
2022/07/18 15:18:44;;;;;;;2.30;0.70;;;;;;;25.47;30.76;100135.09;432195;1270;141295;-60
2022/07/18 15:28:50;;;;;;;3.00;1.10;;;;;;;25.58;30.77;100133.23;431109;1270;147166;-61
2022/07/18 15:38:56;;;;;;;1.50;0.90;;;;;;;25.54;30.72;100125.90;431961;1270;142031;-60
2022/07/18 15:49:01;;;;;;;1.80;1.10;;;;;;;25.28;30.26;100122.83;431988;1270;141697;-64
2022/07/18 15:59:07;;;;;;;3.00;1.10;;;;;;;25.05;30.45;100115.67;431665;1270;141407;-60
2022/07/18 16:09:13;;;;;;;2.50;1.30;;;;;;;24.96;30.83;100114.17;432029;1270;142174;-58
2022/07/18 16:19:19;;;;;;;1.80;0.80;;;;;;;24.85;31.04;100109.45;431235;1270;141341;-61
2022/07/18 16:29:25;;;;;;;3.00;1.00;;;;;;;24.75;31.26;100103.89;431591;1269;142262;-61
2022/07/18 16:39:31;;;;;;;0.90;0.80;;;;;;;24.71;31.52;100101.17;431289;1270;141279;-60
2022/07/18 16:49:38;;;;;;;5.50;1.30;;;;;;;24.51;31.50;100097.58;430984;1270;144118;-60
2022/07/18 16:59:45;;;;;;;4.30;1.10;;;;;;;24.40;32.17;100092.14;431932;1270;141457;-61
2022/07/18 17:09:59;;;;;;;6.80;2.10;;;;;;;24.31;32.16;100092.30;431811;1268;141331;-60
2022/07/18 17:20:07;;;;;;;2.10;1.50;;;;;;;24.19;32.52;100089.13;431365;1270;142101;-59
2022/07/18 17:30:13;;;;;;;;;;;;;;;24.00;32.72;100087.91;431914;1270;145501;-58
2022/07/18 17:40:20;;;;;;;3.80;1.20;;;;;;;23.74;33.47;100087.18;432267;1270;128061;-60
2022/07/18 17:50:27;;;;;;;3.20;1.60;;;;;;;23.52;34.10;100087.14;432090;1270;141245;-59
2022/07/18 18:00:33;;;;;;;4.00;1.10;;;;;;;23.24;34.75;100082.45;431706;1270;142449;-58
2022/07/18 18:10:39;;;;;;;5.00;2.20;;;;;;;22.87;35.69;100076.80;430883;1270;141224;-60
2022/07/18 18:20:45;;;;;;;6.20;2.10;;;;;;;22.44;36.34;100070.36;431821;1270;141192;-58
2022/07/18 18:30:51;;;;;;;8.60;2.60;;;;;;;22.01;37.59;100069.83;432027;1270;142328;-58
2022/07/18 18:40:57;;;;;;;8.30;2.60;;;;;;;21.56;39.36;100080.71;431245;1270;141137;-60
2022/07/18 18:51:03;;;;;;;15.80;4.00;;;;;;;21.18;41.04;100086.79;431476;1270;142893;-60
2022/07/18 19:01:10;;;;;;;10.10;3.40;;;;;;;20.88;41.94;100084.34;431147;1270;141733;-60
2022/07/18 19:11:16;;;;;;;14.80;4.00;;;;;;;20.51;44.18;100084.54;442170;1270;142919;-59
2022/07/18 19:21:21;;;;;;;12.60;2.60;;;;;;;20.12;45.06;100094.82;432129;1270;143472;-58
2022/07/18 19:31:27;;;;;;;11.80;3.50;;;;;;;19.86;46.24;100087.37;429420;1273;187646;-60
2022/07/18 19:41:34;;;;;;;10.80;2.70;;;;;;;19.67;46.52;100078.86;432606;1270;142113;-60
2022/07/18 19:51:40;;;;;;;16.10;4.10;;;;;;;19.54;47.85;100086.18;432542;1270;141888;-59
2022/07/18 20:01:45;;;;;;;8.80;3.70;;;;;;;19.44;48.49;100072.92;430671;1271;141894;-54
2022/07/18 20:11:52;;;;;;;15.50;4.10;;;;;;;19.38;47.84;100069.41;431677;1271;142224;-60
2022/07/18 20:21:58;;;;;;;10.20;3.90;;;;;;;19.31;49.45;100073.80;431607;1271;141920;-60
2022/07/18 20:32:04;;;;;;;5.50;2.80;;;;;;;19.15;50.70;100077.39;431360;1270;146843;-61
2022/07/18 20:42:11;;;;;;;6.40;4.00;;;;;;;18.98;51.43;100075.94;431318;1271;140928;-61
2022/07/18 20:52:16;;;;;;;12.40;4.80;;;;;;;18.81;51.54;100070.55;431596;1270;141159;-60
2022/07/18 21:02:22;;;;;;;10.00;4.60;;;;;;;18.69;52.39;100066.13;431621;1270;141627;-60
2022/07/18 21:12:28;;;;;;;9.60;4.50;;;;;;;18.59;53.04;100059.52;431087;1273;141485;-59
2022/07/18 21:22:35;;;;;;;8.80;3.70;;;;;;;18.51;52.86;100061.23;431556;1270;141930;-59
2022/07/18 21:32:41;;;;;;;5.40;3.60;;;;;;;18.35;53.59;100061.52;431692;1271;142639;-60
2022/07/18 21:42:47;;;;;;;8.20;4.00;;;;;;;18.16;53.25;100058.78;431332;1270;141542;-58
2022/07/18 21:52:53;;;;;;;5.80;3.70;;;;;;;18.00;53.87;100064.25;430112;1273;141985;-59
2022/07/18 22:02:59;;;;;;;6.50;4.30;;;;;;;17.83;54.88;100066.20;431451;1273;143497;-59
2022/07/18 22:13:05;;;;;;;7.10;3.80;;;;;;;17.53;56.19;100056.73;431074;1271;141893;-59
2022/07/18 22:23:11;;;;;;;8.10;4.90;;;;;;;17.22;57.04;100049.08;430976;1271;143600;-57
2022/07/18 22:33:17;;;;;;;11.30;4.40;;;;;;;16.98;57.86;100047.54;432106;1271;142431;-60
2022/07/18 22:43:22;;;;;;;5.00;3.10;;;;;;;16.85;58.54;100042.58;430867;1270;151460;-60
2022/07/18 22:53:29;;;;;;;6.70;4.30;;;;;;;16.80;59.04;100040.14;431466;1271;142239;-59
2022/07/18 23:03:35;;;;;;;5.10;3.70;;;;;;;16.74;59.54;100044.51;431212;1273;142339;-59
2022/07/18 23:13:41;;;;;;;9.20;3.90;;;;;;;16.70;60.03;100046.96;430605;1270;163858;-59
2022/07/18 23:23:47;;;;;;;7.50;4.70;;;;;;;16.69;60.38;100043.93;431885;1270;224750;-58
2022/07/18 23:33:53;;;;;;;6.60;3.90;;;;;;;16.60;60.74;100044.41;432140;1270;147257;-60
2022/07/18 23:43:59;;;;;;;6.10;3.90;;;;;;;16.49;61.14;100049.95;431027;1270;142614;-60
2022/07/18 23:54:05;;;;;;;7.40;4.30;;;;;;;16.39;61.41;100053.35;431244;1270;142619;-60
